sensor_id;sensor_type;location;lat;lon;timestamp;pressure;altitude;pressure_sealevel;temperature;humidity
20119;BME280;10220;42.716;23.306;2023-04-30T00:02:24;94952.34;;;15.68;100.00
20119;BME280;10220;42.716;23.306;2023-04-30T00:04:49;94960.88;;;15.80;100.00
20119;BME280;10220;42.716;23.306;2023-04-30T00:07:15;94958.84;;;15.33;100.00
20119;BME280;10220;42.716;23.306;2023-04-30T00:09:40;94956.63;;;15.25;100.00
20119;BME280;10220;42.716;23.306;2023-04-30T00:12:05;94968.16;;;14.18;100.00
20119;BME280;10220;42.716;23.306;2023-04-30T00:14:31;94967.44;;;14.00;100.00
20119;BME280;10220;42.716;23.306;2023-04-30T00:16:56;94959.47;;;12.92;100.00
20119;BME280;10220;42.716;23.306;2023-04-30T00:19:22;94952.91;;;13.53;100.00
20119;BME280;10220;42.716;23.306;2023-04-30T00:21:47;94948.66;;;13.29;100.00
20119;BME280;10220;42.716;23.306;2023-04-30T00:24:12;94956.44;;;12.77;100.00
20119;BME280;10220;42.716;23.306;2023-04-30T00:26:38;94961.66;;;14.32;100.00
20119;BME280;10220;42.716;23.306;2023-04-30T00:29:03;94941.66;;;13.87;100.00
20119;BME280;10220;42.716;23.306;2023-04-30T00:31:29;94962.03;;;13.55;100.00
20119;BME280;10220;42.716;23.306;2023-04-30T00:33:54;94962.84;;;13.56;100.00
20119;BME280;10220;42.716;23.306;2023-04-30T00:36:20;94961.47;;;13.88;100.00
20119;BME280;10220;42.716;23.306;2023-04-30T00:38:45;94960.34;;;14.18;100.00
20119;BME280;10220;42.716;23.306;2023-04-30T00:41:11;94963.72;;;14.18;100.00
20119;BME280;10220;42.716;23.306;2023-04-30T00:43:36;94942.94;;;14.74;100.00
20119;BME280;10220;42.716;23.306;2023-04-30T00:46:01;94956.94;;;14.57;100.00
20119;BME280;10220;42.716;23.306;2023-04-30T00:48:29;94965.16;;;14.93;100.00
20119;BME280;10220;42.716;23.306;2023-04-30T00:50:55;94962.56;;;14.93;100.00
20119;BME280;10220;42.716;23.306;2023-04-30T00:53:20;94947.06;;;15.47;100.00
20119;BME280;10220;42.716;23.306;2023-04-30T00:55:47;94945.22;;;15.15;100.00
20119;BME280;10220;42.716;23.306;2023-04-30T00:58:12;94965.34;;;13.74;100.00
20119;BME280;10220;42.716;23.306;2023-04-30T01:00:38;94950.81;;;14.12;100.00
20119;BME280;10220;42.716;23.306;2023-04-30T01:03:03;94951.72;;;14.57;100.00
20119;BME280;10220;42.716;23.306;2023-04-30T01:05:29;94951.13;;;14.66;100.00
20119;BME280;10220;42.716;23.306;2023-04-30T01:07:55;94944.47;;;14.19;100.00
20119;BME280;10220;42.716;23.306;2023-04-30T01:10:22;94972.78;;;12.95;100.00
20119;BME280;10220;42.716;23.306;2023-04-30T01:13:07;94960.16;;;12.05;100.00
20119;BME280;10220;42.716;23.306;2023-04-30T01:15:50;94956.59;;;12.64;100.00
20119;BME280;10220;42.716;23.306;2023-04-30T01:21:00;94966.03;;;12.47;100.00
20119;BME280;10220;42.716;23.306;2023-04-30T01:26:14;94965.72;;;12.08;100.00
20119;BME280;10220;42.716;23.306;2023-04-30T01:28:45;94964.13;;;11.89;100.00
20119;BME280;10220;42.716;23.306;2023-04-30T01:31:17;94948.03;;;10.84;100.00
20119;BME280;10220;42.716;23.306;2023-04-30T01:33:43;94938.75;;;9.95;100.00
20119;BME280;10220;42.716;23.306;2023-04-30T01:36:25;94944.16;;;11.23;100.00
20119;BME280;10220;42.716;23.306;2023-04-30T01:41:48;94948.25;;;11.97;100.00
20119;BME280;10220;42.716;23.306;2023-04-30T01:49:57;94943.34;;;12.84;100.00
20119;BME280;10220;42.716;23.306;2023-04-30T01:52:46;94949.91;;;13.38;100.00
20119;BME280;10220;42.716;23.306;2023-04-30T01:55:19;94964.06;;;13.76;100.00
20119;BME280;10220;42.716;23.306;2023-04-30T01:57:54;94955.13;;;13.38;100.00
20119;BME280;10220;42.716;23.306;2023-04-30T02:00:23;94957.31;;;13.75;100.00
20119;BME280;10220;42.716;23.306;2023-04-30T02:02:49;94962.47;;;13.41;100.00
20119;BME280;10220;42.716;23.306;2023-04-30T02:05:14;94949.09;;;14.57;100.00
20119;BME280;10220;42.716;23.306;2023-04-30T02:07:44;94950.13;;;14.83;100.00
20119;BME280;10220;42.716;23.306;2023-04-30T02:10:12;94947.16;;;15.35;100.00
20119;BME280;10220;42.716;23.306;2023-04-30T02:12:38;94953.31;;;15.29;100.00
20119;BME280;10220;42.716;23.306;2023-04-30T02:15:04;94960.25;;;13.56;100.00
20119;BME280;10220;42.716;23.306;2023-04-30T02:17:30;94959.78;;;12.95;100.00
20119;BME280;10220;42.716;23.306;2023-04-30T02:19:56;94951.16;;;14.15;100.00
20119;BME280;10220;42.716;23.306;2023-04-30T02:22:22;94945.84;;;13.76;100.00
20119;BME280;10220;42.716;23.306;2023-04-30T02:24:47;94950.50;;;13.40;100.00
20119;BME280;10220;42.716;23.306;2023-04-30T02:27:12;94948.34;;;13.48;100.00
20119;BME280;10220;42.716;23.306;2023-04-30T02:29:38;94946.25;;;14.30;100.00
20119;BME280;10220;42.716;23.306;2023-04-30T02:32:04;94950.31;;;14.38;100.00
20119;BME280;10220;42.716;23.306;2023-04-30T02:34:29;94950.00;;;14.23;100.00
20119;BME280;10220;42.716;23.306;2023-04-30T02:36:54;94952.72;;;14.28;100.00
20119;BME280;10220;42.716;23.306;2023-04-30T02:39:20;94942.88;;;14.58;100.00
20119;BME280;10220;42.716;23.306;2023-04-30T02:41:45;94960.84;;;14.70;100.00
20119;BME280;10220;42.716;23.306;2023-04-30T02:44:11;94965.44;;;12.92;100.00
20119;BME280;10220;42.716;23.306;2023-04-30T02:46:36;94967.88;;;11.93;100.00
20119;BME280;10220;42.716;23.306;2023-04-30T02:49:02;94940.81;;;11.41;100.00
20119;BME280;10220;42.716;23.306;2023-04-30T02:51:27;94961.72;;;10.97;100.00
20119;BME280;10220;42.716;23.306;2023-04-30T02:53:53;94959.66;;;11.06;100.00
20119;BME280;10220;42.716;23.306;2023-04-30T02:56:18;94935.84;;;10.91;100.00
20119;BME280;10220;42.716;23.306;2023-04-30T02:58:44;94950.63;;;11.14;100.00
20119;BME280;10220;42.716;23.306;2023-04-30T03:01:09;94945.47;;;11.08;100.00
20119;BME280;10220;42.716;23.306;2023-04-30T03:03:35;94947.13;;;11.51;100.00
20119;BME280;10220;42.716;23.306;2023-04-30T03:06:00;94956.59;;;10.91;100.00
20119;BME280;10220;42.716;23.306;2023-04-30T03:08:26;94959.19;;;11.39;100.00
20119;BME280;10220;42.716;23.306;2023-04-30T03:10:51;94949.03;;;11.38;100.00
20119;BME280;10220;42.716;23.306;2023-04-30T03:13:17;94965.69;;;11.48;100.00
20119;BME280;10220;42.716;23.306;2023-04-30T03:15:43;94973.88;;;10.59;100.00
20119;BME280;10220;42.716;23.306;2023-04-30T03:18:09;94980.09;;;10.58;100.00
20119;BME280;10220;42.716;23.306;2023-04-30T03:20:35;94979.03;;;10.66;100.00
20119;BME280;10220;42.716;23.306;2023-04-30T03:23:01;94973.69;;;10.67;100.00
20119;BME280;10220;42.716;23.306;2023-04-30T03:25:26;94963.25;;;10.80;100.00
20119;BME280;10220;42.716;23.306;2023-04-30T03:27:51;94971.16;;;10.85;100.00
20119;BME280;10220;42.716;23.306;2023-04-30T03:30:17;94973.75;;;11.82;100.00
20119;BME280;10220;42.716;23.306;2023-04-30T03:32:42;94961.41;;;11.12;100.00
20119;BME280;10220;42.716;23.306;2023-04-30T03:35:08;94980.41;;;11.30;100.00
20119;BME280;10220;42.716;23.306;2023-04-30T03:37:33;94985.03;;;10.66;100.00
20119;BME280;10220;42.716;23.306;2023-04-30T03:39:59;94975.50;;;10.91;100.00
20119;BME280;10220;42.716;23.306;2023-04-30T03:42:24;94975.75;;;10.02;100.00
20119;BME280;10220;42.716;23.306;2023-04-30T03:44:50;94983.13;;;9.86;100.00
20119;BME280;10220;42.716;23.306;2023-04-30T03:47:15;94994.00;;;10.14;100.00
20119;BME280;10220;42.716;23.306;2023-04-30T03:49:41;94990.13;;;10.42;100.00
20119;BME280;10220;42.716;23.306;2023-04-30T03:52:06;95003.41;;;10.58;100.00
20119;BME280;10220;42.716;23.306;2023-04-30T03:54:32;94993.94;;;10.77;100.00
20119;BME280;10220;42.716;23.306;2023-04-30T03:57:00;94999.63;;;9.85;100.00
20119;BME280;10220;42.716;23.306;2023-04-30T03:59:29;95000.50;;;9.47;100.00
20119;BME280;10220;42.716;23.306;2023-04-30T04:01:55;95003.84;;;9.67;100.00
20119;BME280;10220;42.716;23.306;2023-04-30T04:04:20;94999.50;;;10.37;100.00
20119;BME280;10220;42.716;23.306;2023-04-30T04:06:45;94995.53;;;10.34;100.00
20119;BME280;10220;42.716;23.306;2023-04-30T04:09:11;95003.75;;;10.62;100.00
20119;BME280;10220;42.716;23.306;2023-04-30T04:11:36;94999.25;;;10.88;100.00
20119;BME280;10220;42.716;23.306;2023-04-30T04:14:02;95008.78;;;10.94;100.00
20119;BME280;10220;42.716;23.306;2023-04-30T04:16:27;95010.94;;;10.66;100.00
20119;BME280;10220;42.716;23.306;2023-04-30T04:18:52;95002.94;;;10.68;100.00
20119;BME280;10220;42.716;23.306;2023-04-30T04:21:20;95003.66;;;10.51;100.00
20119;BME280;10220;42.716;23.306;2023-04-30T04:23:45;95002.94;;;11.29;100.00
20119;BME280;10220;42.716;23.306;2023-04-30T04:26:11;95004.53;;;11.61;100.00
20119;BME280;10220;42.716;23.306;2023-04-30T04:28:36;94996.00;;;11.48;100.00
20119;BME280;10220;42.716;23.306;2023-04-30T04:31:03;95011.31;;;11.80;100.00
20119;BME280;10220;42.716;23.306;2023-04-30T04:33:28;95014.31;;;12.01;100.00
20119;BME280;10220;42.716;23.306;2023-04-30T04:35:54;95028.03;;;12.08;100.00
20119;BME280;10220;42.716;23.306;2023-04-30T04:38:21;94999.56;;;11.29;100.00
20119;BME280;10220;42.716;23.306;2023-04-30T04:40:53;95026.94;;;11.73;100.00
20119;BME280;10220;42.716;23.306;2023-04-30T04:43:19;95019.63;;;11.15;100.00
20119;BME280;10220;42.716;23.306;2023-04-30T04:45:45;95006.91;;;10.27;100.00
20119;BME280;10220;42.716;23.306;2023-04-30T04:48:11;95016.28;;;10.21;100.00
20119;BME280;10220;42.716;23.306;2023-04-30T04:50:37;95020.72;;;10.58;100.00
20119;BME280;10220;42.716;23.306;2023-04-30T04:53:02;95024.59;;;10.43;100.00
20119;BME280;10220;42.716;23.306;2023-04-30T04:55:28;95014.16;;;10.55;100.00
20119;BME280;10220;42.716;23.306;2023-04-30T04:57:53;95019.56;;;10.48;100.00
20119;BME280;10220;42.716;23.306;2023-04-30T05:00:18;95032.69;;;10.59;100.00
20119;BME280;10220;42.716;23.306;2023-04-30T05:02:46;95011.66;;;10.43;100.00
20119;BME280;10220;42.716;23.306;2023-04-30T05:05:11;95027.25;;;11.04;100.00
20119;BME280;10220;42.716;23.306;2023-04-30T05:07:37;95033.91;;;11.24;100.00
20119;BME280;10220;42.716;23.306;2023-04-30T05:10:03;95025.94;;;11.26;100.00
20119;BME280;10220;42.716;23.306;2023-04-30T05:12:28;95023.00;;;11.16;100.00
20119;BME280;10220;42.716;23.306;2023-04-30T05:14:54;95027.88;;;11.30;100.00
20119;BME280;10220;42.716;23.306;2023-04-30T05:17:19;95044.75;;;10.78;100.00
20119;BME280;10220;42.716;23.306;2023-04-30T05:19:44;95021.16;;;10.49;100.00
20119;BME280;10220;42.716;23.306;2023-04-30T05:22:11;95021.84;;;10.31;100.00
20119;BME280;10220;42.716;23.306;2023-04-30T05:24:37;95033.81;;;10.69;100.00
20119;BME280;10220;42.716;23.306;2023-04-30T05:27:02;95033.72;;;10.89;100.00
20119;BME280;10220;42.716;23.306;2023-04-30T05:29:29;95036.31;;;10.89;100.00
20119;BME280;10220;42.716;23.306;2023-04-30T05:31:54;95028.09;;;11.29;100.00
20119;BME280;10220;42.716;23.306;2023-04-30T05:34:20;95034.31;;;11.21;100.00
20119;BME280;10220;42.716;23.306;2023-04-30T05:36:45;95046.28;;;10.85;100.00
20119;BME280;10220;42.716;23.306;2023-04-30T05:39:11;95013.13;;;10.63;100.00
20119;BME280;10220;42.716;23.306;2023-04-30T05:41:36;95038.94;;;10.82;100.00
20119;BME280;10220;42.716;23.306;2023-04-30T05:44:02;95014.94;;;11.24;100.00
20119;BME280;10220;42.716;23.306;2023-04-30T05:46:29;95025.22;;;11.37;100.00
20119;BME280;10220;42.716;23.306;2023-04-30T05:48:54;95028.66;;;11.31;100.00
20119;BME280;10220;42.716;23.306;2023-04-30T05:51:20;95014.91;;;11.30;100.00
20119;BME280;10220;42.716;23.306;2023-04-30T05:53:45;95038.75;;;11.45;100.00
20119;BME280;10220;42.716;23.306;2023-04-30T05:56:11;95041.50;;;11.50;100.00
20119;BME280;10220;42.716;23.306;2023-04-30T05:58:37;95031.13;;;11.74;100.00
20119;BME280;10220;42.716;23.306;2023-04-30T06:01:03;95032.16;;;11.49;100.00
20119;BME280;10220;42.716;23.306;2023-04-30T06:03:28;95033.56;;;11.45;100.00
20119;BME280;10220;42.716;23.306;2023-04-30T06:05:53;95056.66;;;11.77;100.00
20119;BME280;10220;42.716;23.306;2023-04-30T06:08:19;95047.28;;;11.52;100.00
20119;BME280;10220;42.716;23.306;2023-04-30T06:10:44;95060.78;;;11.85;100.00
20119;BME280;10220;42.716;23.306;2023-04-30T06:13:10;95041.41;;;11.63;100.00
20119;BME280;10220;42.716;23.306;2023-04-30T06:15:36;95056.13;;;11.93;100.00
20119;BME280;10220;42.716;23.306;2023-04-30T06:18:02;95063.06;;;11.99;100.00
20119;BME280;10220;42.716;23.306;2023-04-30T06:20:27;95050.47;;;11.78;100.00
20119;BME280;10220;42.716;23.306;2023-04-30T06:22:53;95053.25;;;12.01;100.00
20119;BME280;10220;42.716;23.306;2023-04-30T06:25:18;95051.41;;;12.62;100.00
20119;BME280;10220;42.716;23.306;2023-04-30T06:27:45;95056.53;;;12.86;100.00
20119;BME280;10220;42.716;23.306;2023-04-30T06:30:11;95055.28;;;13.06;100.00
20119;BME280;10220;42.716;23.306;2023-04-30T06:32:36;95061.06;;;12.73;100.00
20119;BME280;10220;42.716;23.306;2023-04-30T06:35:01;95066.56;;;12.65;100.00
20119;BME280;10220;42.716;23.306;2023-04-30T06:37:27;95064.47;;;12.37;100.00
20119;BME280;10220;42.716;23.306;2023-04-30T06:39:52;95048.00;;;12.79;100.00
20119;BME280;10220;42.716;23.306;2023-04-30T06:42:18;95061.41;;;13.64;100.00
20119;BME280;10220;42.716;23.306;2023-04-30T06:44:43;95069.25;;;13.35;100.00
20119;BME280;10220;42.716;23.306;2023-04-30T06:47:09;95068.97;;;13.43;100.00
20119;BME280;10220;42.716;23.306;2023-04-30T06:49:35;95070.22;;;13.51;100.00
20119;BME280;10220;42.716;23.306;2023-04-30T06:52:00;95068.44;;;13.23;100.00
20119;BME280;10220;42.716;23.306;2023-04-30T06:54:26;95061.84;;;13.49;100.00
20119;BME280;10220;42.716;23.306;2023-04-30T06:56:52;95064.34;;;13.56;100.00
20119;BME280;10220;42.716;23.306;2023-04-30T06:59:17;95067.50;;;13.58;100.00
20119;BME280;10220;42.716;23.306;2023-04-30T07:01:43;95062.59;;;13.91;100.00
20119;BME280;10220;42.716;23.306;2023-04-30T07:04:08;95057.03;;;13.76;100.00
20119;BME280;10220;42.716;23.306;2023-04-30T07:06:34;95077.44;;;14.02;100.00
20119;BME280;10220;42.716;23.306;2023-04-30T07:08:59;95069.91;;;13.71;100.00
20119;BME280;10220;42.716;23.306;2023-04-30T07:11:25;95064.03;;;13.75;100.00
20119;BME280;10220;42.716;23.306;2023-04-30T07:13:50;95068.56;;;13.80;100.00
20119;BME280;10220;42.716;23.306;2023-04-30T07:16:16;95066.66;;;13.98;100.00
20119;BME280;10220;42.716;23.306;2023-04-30T07:18:41;95068.66;;;13.73;100.00
20119;BME280;10220;42.716;23.306;2023-04-30T07:21:07;95062.97;;;14.17;100.00
20119;BME280;10220;42.716;23.306;2023-04-30T07:23:33;95063.03;;;13.99;100.00
20119;BME280;10220;42.716;23.306;2023-04-30T07:25:59;95071.41;;;13.78;100.00
20119;BME280;10220;42.716;23.306;2023-04-30T07:28:24;95063.53;;;14.81;100.00
20119;BME280;10220;42.716;23.306;2023-04-30T07:30:50;95061.16;;;14.91;100.00
20119;BME280;10220;42.716;23.306;2023-04-30T07:33:15;95053.63;;;14.94;100.00
20119;BME280;10220;42.716;23.306;2023-04-30T07:35:41;95074.34;;;15.12;100.00
20119;BME280;10220;42.716;23.306;2023-04-30T07:38:06;95067.53;;;15.83;100.00
20119;BME280;10220;42.716;23.306;2023-04-30T07:40:32;95071.47;;;16.35;100.00
20119;BME280;10220;42.716;23.306;2023-04-30T07:42:58;95045.44;;;15.90;100.00
20119;BME280;10220;42.716;23.306;2023-04-30T07:45:23;95071.16;;;16.47;100.00
20119;BME280;10220;42.716;23.306;2023-04-30T07:47:48;95076.19;;;16.33;100.00
20119;BME280;10220;42.716;23.306;2023-04-30T07:50:14;95067.44;;;16.11;100.00
20119;BME280;10220;42.716;23.306;2023-04-30T07:52:40;95062.25;;;16.86;100.00
20119;BME280;10220;42.716;23.306;2023-04-30T07:55:06;95074.41;;;16.54;97.45
20119;BME280;10220;42.716;23.306;2023-04-30T07:57:31;95069.34;;;16.32;98.66
20119;BME280;10220;42.716;23.306;2023-04-30T08:00:00;95066.19;;;16.89;95.63
20119;BME280;10220;42.716;23.306;2023-04-30T08:02:25;95067.09;;;16.56;92.22
20119;BME280;10220;42.716;23.306;2023-04-30T08:04:51;95046.91;;;16.73;96.09
20119;BME280;10220;42.716;23.306;2023-04-30T08:07:16;95071.53;;;17.20;97.04
20119;BME280;10220;42.716;23.306;2023-04-30T08:09:42;95064.19;;;16.74;95.57
20119;BME280;10220;42.716;23.306;2023-04-30T08:12:08;95064.59;;;16.88;94.84
20119;BME280;10220;42.716;23.306;2023-04-30T08:14:33;95057.47;;;17.04;97.32
20119;BME280;10220;42.716;23.306;2023-04-30T08:16:59;95079.63;;;16.54;91.25
20119;BME280;10220;42.716;23.306;2023-04-30T08:19:26;95071.78;;;16.54;97.73
20119;BME280;10220;42.716;23.306;2023-04-30T08:21:52;95076.19;;;16.54;98.54
20119;BME280;10220;42.716;23.306;2023-04-30T08:24:17;95080.66;;;16.75;99.47
20119;BME280;10220;42.716;23.306;2023-04-30T08:26:47;95075.19;;;17.19;99.10
20119;BME280;10220;42.716;23.306;2023-04-30T08:29:12;95096.25;;;17.50;91.98
20119;BME280;10220;42.716;23.306;2023-04-30T08:31:38;95079.09;;;17.95;94.64
20119;BME280;10220;42.716;23.306;2023-04-30T08:34:03;95074.88;;;17.89;86.98
20119;BME280;10220;42.716;23.306;2023-04-30T08:36:29;95072.97;;;18.47;85.53
20119;BME280;10220;42.716;23.306;2023-04-30T08:38:54;95057.00;;;18.54;83.37
20119;BME280;10220;42.716;23.306;2023-04-30T08:41:24;95054.78;;;18.82;84.72
20119;BME280;10220;42.716;23.306;2023-04-30T08:43:52;95072.53;;;19.06;80.70
20119;BME280;10220;42.716;23.306;2023-04-30T08:46:21;95064.97;;;18.74;77.21
20119;BME280;10220;42.716;23.306;2023-04-30T08:48:48;95067.59;;;18.74;82.03
20119;BME280;10220;42.716;23.306;2023-04-30T08:51:14;95054.50;;;18.32;74.54
20119;BME280;10220;42.716;23.306;2023-04-30T08:53:41;95052.72;;;18.38;79.49
20119;BME280;10220;42.716;23.306;2023-04-30T08:56:09;95062.06;;;18.24;72.28
20119;BME280;10220;42.716;23.306;2023-04-30T08:58:35;95058.94;;;17.96;74.16
20119;BME280;10220;42.716;23.306;2023-04-30T09:01:02;95057.81;;;18.59;75.68
20119;BME280;10220;42.716;23.306;2023-04-30T09:03:30;95042.69;;;18.81;73.53
20119;BME280;10220;42.716;23.306;2023-04-30T09:05:55;95031.19;;;18.87;75.44
20119;BME280;10220;42.716;23.306;2023-04-30T09:11:29;95019.88;;;19.92;71.26
20119;BME280;10220;42.716;23.306;2023-04-30T09:13:57;95030.09;;;19.89;64.64
20119;BME280;10220;42.716;23.306;2023-04-30T09:16:24;95018.69;;;19.19;62.82
20119;BME280;10220;42.716;23.306;2023-04-30T09:18:50;95021.38;;;19.34;69.78
20119;BME280;10220;42.716;23.306;2023-04-30T09:21:16;95028.53;;;18.82;74.15
20119;BME280;10220;42.716;23.306;2023-04-30T09:23:58;95022.97;;;18.74;74.62
20119;BME280;10220;42.716;23.306;2023-04-30T09:26:42;95025.72;;;18.47;70.75
20119;BME280;10220;42.716;23.306;2023-04-30T09:29:07;95018.66;;;18.48;75.23
20119;BME280;10220;42.716;23.306;2023-04-30T09:31:38;95019.53;;;18.68;77.57
20119;BME280;10220;42.716;23.306;2023-04-30T09:34:04;94999.56;;;18.62;73.12
20119;BME280;10220;42.716;23.306;2023-04-30T09:36:31;94993.38;;;18.88;71.55
20119;BME280;10220;42.716;23.306;2023-04-30T09:39:07;95000.81;;;19.11;69.20
20119;BME280;10220;42.716;23.306;2023-04-30T09:41:34;94999.78;;;19.27;69.03
20119;BME280;10220;42.716;23.306;2023-04-30T09:44:00;94999.59;;;19.48;66.87
20119;BME280;10220;42.716;23.306;2023-04-30T09:46:30;95003.91;;;18.98;65.69
20119;BME280;10220;42.716;23.306;2023-04-30T09:49:01;95007.03;;;18.34;68.02
20119;BME280;10220;42.716;23.306;2023-04-30T09:51:27;94992.38;;;18.38;70.59
20119;BME280;10220;42.716;23.306;2023-04-30T09:53:53;94989.31;;;19.37;72.76
20119;BME280;10220;42.716;23.306;2023-04-30T09:56:24;94991.19;;;20.01;70.40
20119;BME280;10220;42.716;23.306;2023-04-30T09:58:54;94988.50;;;20.35;66.27
20119;BME280;10220;42.716;23.306;2023-04-30T10:01:21;94981.44;;;20.11;61.07
20119;BME280;10220;42.716;23.306;2023-04-30T10:03:48;94979.59;;;19.47;57.84
20119;BME280;10220;42.716;23.306;2023-04-30T10:06:14;94976.97;;;19.72;61.75
20119;BME280;10220;42.716;23.306;2023-04-30T10:08:45;94971.13;;;20.34;64.42
20119;BME280;10220;42.716;23.306;2023-04-30T10:11:14;94984.50;;;20.53;61.68
20119;BME280;10220;42.716;23.306;2023-04-30T10:13:49;94987.69;;;20.45;56.47
20119;BME280;10220;42.716;23.306;2023-04-30T10:19:12;94989.63;;;18.69;62.90
20119;BME280;10220;42.716;23.306;2023-04-30T10:21:39;94991.38;;;18.08;70.10
20119;BME280;10220;42.716;23.306;2023-04-30T10:24:08;95021.88;;;17.25;87.19
20119;BME280;10220;42.716;23.306;2023-04-30T10:26:33;95020.25;;;16.01;100.00
20119;BME280;10220;42.716;23.306;2023-04-30T10:29:01;95052.34;;;15.08;100.00
20119;BME280;10220;42.716;23.306;2023-04-30T10:31:28;95047.88;;;14.30;100.00
20119;BME280;10220;42.716;23.306;2023-04-30T10:36:36;95013.59;;;14.10;100.00
20119;BME280;10220;42.716;23.306;2023-04-30T10:39:03;95009.66;;;14.47;100.00
20119;BME280;10220;42.716;23.306;2023-04-30T10:41:30;94989.94;;;14.51;100.00
20119;BME280;10220;42.716;23.306;2023-04-30T10:43:57;94991.06;;;14.44;100.00
20119;BME280;10220;42.716;23.306;2023-04-30T10:46:25;94970.22;;;14.83;100.00
20119;BME280;10220;42.716;23.306;2023-04-30T10:48:52;94985.69;;;15.28;100.00
20119;BME280;10220;42.716;23.306;2023-04-30T10:51:19;94989.78;;;15.41;100.00
20119;BME280;10220;42.716;23.306;2023-04-30T10:53:48;94975.94;;;15.57;100.00
20119;BME280;10220;42.716;23.306;2023-04-30T10:56:31;94984.81;;;16.43;100.00
20119;BME280;10220;42.716;23.306;2023-04-30T10:59:00;94985.56;;;16.86;100.00
20119;BME280;10220;42.716;23.306;2023-04-30T11:01:29;94969.97;;;17.48;100.00
20119;BME280;10220;42.716;23.306;2023-04-30T11:04:06;95001.25;;;17.60;100.00
20119;BME280;10220;42.716;23.306;2023-04-30T11:09:14;94990.84;;;18.47;100.00
20119;BME280;10220;42.716;23.306;2023-04-30T11:11:39;94999.69;;;18.31;100.00
20119;BME280;10220;42.716;23.306;2023-04-30T11:14:05;94985.56;;;18.42;100.00
20119;BME280;10220;42.716;23.306;2023-04-30T11:16:34;95003.38;;;18.35;100.00
20119;BME280;10220;42.716;23.306;2023-04-30T11:19:10;94991.81;;;18.31;100.00
20119;BME280;10220;42.716;23.306;2023-04-30T11:27:26;94982.91;;;19.03;93.24
20119;BME280;10220;42.716;23.306;2023-04-30T11:29:57;94992.63;;;19.02;94.75
20119;BME280;10220;42.716;23.306;2023-04-30T11:32:24;94988.00;;;19.49;95.62
20119;BME280;10220;42.716;23.306;2023-04-30T11:34:51;94991.41;;;19.40;91.33
20119;BME280;10220;42.716;23.306;2023-04-30T11:37:24;94993.63;;;18.86;92.74
20119;BME280;10220;42.716;23.306;2023-04-30T11:39:54;95001.69;;;19.36;92.54
20119;BME280;10220;42.716;23.306;2023-04-30T11:42:20;95001.19;;;19.99;90.55
20119;BME280;10220;42.716;23.306;2023-04-30T11:44:45;94989.34;;;19.71;88.67
20119;BME280;10220;42.716;23.306;2023-04-30T11:47:14;94984.88;;;19.97;84.98
20119;BME280;10220;42.716;23.306;2023-04-30T11:49:40;94990.34;;;19.36;86.16
20119;BME280;10220;42.716;23.306;2023-04-30T11:52:06;94987.03;;;18.84;90.11
20119;BME280;10220;42.716;23.306;2023-04-30T11:54:36;94990.22;;;18.86;90.55
20119;BME280;10220;42.716;23.306;2023-04-30T11:57:03;94983.47;;;19.10;91.70
20119;BME280;10220;42.716;23.306;2023-04-30T11:59:29;94978.34;;;18.69;85.02
20119;BME280;10220;42.716;23.306;2023-04-30T12:01:55;94982.66;;;18.33;90.86
20119;BME280;10220;42.716;23.306;2023-04-30T12:04:21;94976.38;;;18.03;93.61
20119;BME280;10220;42.716;23.306;2023-04-30T12:06:47;94978.97;;;17.93;93.57
20119;BME280;10220;42.716;23.306;2023-04-30T12:09:12;94999.63;;;17.90;97.73
20119;BME280;10220;42.716;23.306;2023-04-30T12:11:38;95007.22;;;17.86;99.35
20119;BME280;10220;42.716;23.306;2023-04-30T12:14:13;95012.63;;;17.75;92.88
20119;BME280;10220;42.716;23.306;2023-04-30T12:16:50;95020.63;;;17.59;98.80
20119;BME280;10220;42.716;23.306;2023-04-30T12:19:17;95012.72;;;17.27;100.00
20119;BME280;10220;42.716;23.306;2023-04-30T12:21:44;95015.59;;;17.26;100.00
20119;BME280;10220;42.716;23.306;2023-04-30T12:24:15;95023.50;;;17.09;100.00
20119;BME280;10220;42.716;23.306;2023-04-30T12:26:41;95025.28;;;16.83;100.00
20119;BME280;10220;42.716;23.306;2023-04-30T12:29:14;95028.03;;;16.93;100.00
20119;BME280;10220;42.716;23.306;2023-04-30T12:31:40;95022.81;;;16.71;100.00
20119;BME280;10220;42.716;23.306;2023-04-30T12:34:07;95021.22;;;16.70;100.00
20119;BME280;10220;42.716;23.306;2023-04-30T12:36:34;95026.59;;;16.80;100.00
20119;BME280;10220;42.716;23.306;2023-04-30T12:39:11;95023.44;;;17.04;100.00
20119;BME280;10220;42.716;23.306;2023-04-30T12:41:42;95013.94;;;17.41;100.00
20119;BME280;10220;42.716;23.306;2023-04-30T12:44:24;95017.69;;;17.55;100.00
20119;BME280;10220;42.716;23.306;2023-04-30T12:47:06;94995.13;;;17.49;94.07
20119;BME280;10220;42.716;23.306;2023-04-30T12:49:35;95017.66;;;17.50;99.58
20119;BME280;10220;42.716;23.306;2023-04-30T12:52:05;94996.72;;;17.24;100.00
20119;BME280;10220;42.716;23.306;2023-04-30T12:54:33;95005.16;;;17.31;100.00
20119;BME280;10220;42.716;23.306;2023-04-30T12:57:01;95020.47;;;17.44;100.00
20119;BME280;10220;42.716;23.306;2023-04-30T12:59:31;95019.09;;;17.63;100.00
20119;BME280;10220;42.716;23.306;2023-04-30T13:02:11;95016.75;;;17.40;100.00
20119;BME280;10220;42.716;23.306;2023-04-30T13:04:38;95000.22;;;17.65;100.00
20119;BME280;10220;42.716;23.306;2023-04-30T13:07:04;95005.69;;;17.59;98.46
20119;BME280;10220;42.716;23.306;2023-04-30T13:09:34;94999.13;;;17.30;100.00
20119;BME280;10220;42.716;23.306;2023-04-30T13:12:12;94982.06;;;17.02;100.00
20119;BME280;10220;42.716;23.306;2023-04-30T13:14:39;94977.16;;;16.41;100.00